createdAt,value
2018-07-07T00:01:18.651Z,41.71
2018-07-07T00:03:47.930Z,42.19
2018-07-07T00:06:17.084Z,42.73
2018-07-07T00:08:46.315Z,42.41
2018-07-07T00:11:15.462Z,42.41
2018-07-07T00:13:44.732Z,42.68
2018-07-07T00:16:14.535Z,43.30
2018-07-07T00:18:44.595Z,43.10
2018-07-07T00:21:13.809Z,42.99
2018-07-07T00:23:43.054Z,43.44
2018-07-07T00:26:12.452Z,43.15
2018-07-07T00:28:41.863Z,43.40
2018-07-07T00:31:11.133Z,43.21
2018-07-07T00:33:40.371Z,43.16
2018-07-07T00:36:09.532Z,43.34
2018-07-07T00:38:38.785Z,42.85
2018-07-07T00:41:08.053Z,43.19
2018-07-07T00:43:37.350Z,43.23
2018-07-07T00:46:06.655Z,43.44
2018-07-07T00:48:35.851Z,42.88
2018-07-07T00:51:05.006Z,43.66
2018-07-07T00:53:34.157Z,44.60
2018-07-07T00:56:03.300Z,44.31
2018-07-07T00:58:32.449Z,44.31
2018-07-07T01:01:01.809Z,44.48
2018-07-07T01:03:31.135Z,44.21
2018-07-07T01:06:00.502Z,44.02
2018-07-07T01:08:29.744Z,45.53
2018-07-07T01:10:59.043Z,45.67
2018-07-07T01:13:28.442Z,45.38
2018-07-07T01:15:57.847Z,45.49
2018-07-07T01:18:27.359Z,45.27
2018-07-07T01:20:56.686Z,45.28
2018-07-07T01:23:25.962Z,45.52
2018-07-07T01:25:55.669Z,47.89
2018-07-07T01:28:25.485Z,46.72
2018-07-07T01:30:54.976Z,47.37
2018-07-07T01:33:24.745Z,46.88
2018-07-07T01:35:54.625Z,47.37
2018-07-07T01:38:24.721Z,47.86
2018-07-07T01:40:53.970Z,47.11
2018-07-07T01:43:23.557Z,47.06
2018-07-07T01:45:53.142Z,47.77
2018-07-07T01:48:22.462Z,47.87
2018-07-07T01:50:51.686Z,47.77
2018-07-07T01:53:20.966Z,48.38
2018-07-07T01:55:50.221Z,48.43
2018-07-07T01:58:19.463Z,49.09
2018-07-07T02:00:48.809Z,49.57
2018-07-07T02:03:18.065Z,49.40
2018-07-07T02:05:47.316Z,49.12
2018-07-07T02:08:16.676Z,49.08
2018-07-07T02:10:45.991Z,49.30
2018-07-07T02:13:15.230Z,49.56
2018-07-07T02:15:44.573Z,49.79
2018-07-07T02:18:13.902Z,49.38
2018-07-07T02:20:43.131Z,50.24
2018-07-07T02:23:12.415Z,49.98
2018-07-07T02:25:41.643Z,50.00
2018-07-07T02:28:10.915Z,50.05
2018-07-07T02:30:40.150Z,50.42
2018-07-07T02:33:09.417Z,50.25
2018-07-07T02:35:38.659Z,50.61
2018-07-07T02:38:08.102Z,50.45
2018-07-07T02:40:37.377Z,49.88
2018-07-07T02:43:06.703Z,50.46
2018-07-07T02:45:36.082Z,50.49
2018-07-07T02:48:05.344Z,51.66
2018-07-07T02:50:34.671Z,52.33
2018-07-07T02:53:04.030Z,52.04
2018-07-07T02:55:33.283Z,51.64
2018-07-07T02:58:02.532Z,52.94
2018-07-07T03:00:31.738Z,53.17
2018-07-07T03:03:01.023Z,53.64
2018-07-07T03:05:30.262Z,54.53
2018-07-07T03:07:59.544Z,55.06
2018-07-07T03:10:28.874Z,55.24
2018-07-07T03:12:58.102Z,55.55
2018-07-07T03:15:27.452Z,55.31
2018-07-07T03:17:56.598Z,55.61
2018-07-07T03:20:25.853Z,55.20
2018-07-07T03:22:55.459Z,56.07
2018-07-07T03:25:24.781Z,56.29
2018-07-07T03:27:54.150Z,55.73
2018-07-07T03:30:23.486Z,55.09
2018-07-07T03:32:52.742Z,56.06
2018-07-07T03:35:22.071Z,56.80
2018-07-07T03:37:51.312Z,57.47
2018-07-07T03:40:20.551Z,57.34
2018-07-07T03:42:49.718Z,56.53
2018-07-07T03:45:19.238Z,55.52
2018-07-07T03:47:48.570Z,54.75
2018-07-07T03:50:17.929Z,54.62
2018-07-07T03:52:47.169Z,54.74
2018-07-07T03:55:16.466Z,54.52
2018-07-07T03:57:45.734Z,54.79
2018-07-07T04:00:14.973Z,54.05
2018-07-07T04:02:44.268Z,53.59
2018-07-07T04:05:13.572Z,53.63
2018-07-07T04:07:42.875Z,53.55
2018-07-07T04:10:12.376Z,53.57
2018-07-07T04:12:41.771Z,53.20
2018-07-07T04:15:11.121Z,52.90
2018-07-07T04:17:40.454Z,52.77
2018-07-07T04:20:09.717Z,52.73
2018-07-07T04:22:38.973Z,52.31
2018-07-07T04:25:08.181Z,52.53
2018-07-07T04:27:37.471Z,52.44
2018-07-07T04:30:06.787Z,52.34
2018-07-07T04:32:36.150Z,56.59
2018-07-07T04:35:05.381Z,58.25
2018-07-07T04:37:34.645Z,60.13
2018-07-07T04:40:03.990Z,60.70
2018-07-07T04:42:33.388Z,60.47
2018-07-07T04:45:02.676Z,60.44
2018-07-07T04:47:31.994Z,60.76
2018-07-07T04:50:01.416Z,60.72
2018-07-07T04:52:30.744Z,60.36
2018-07-07T04:55:00.301Z,61.07
2018-07-07T04:57:29.562Z,60.76
2018-07-07T04:59:58.901Z,59.94
2018-07-07T05:02:28.170Z,58.68
2018-07-07T05:04:57.506Z,58.90
2018-07-07T05:07:26.855Z,58.43
2018-07-07T05:09:56.117Z,57.36
2018-07-07T05:12:25.379Z,58.12
2018-07-07T05:14:54.721Z,57.83
2018-07-07T05:17:23.944Z,57.68
2018-07-07T05:19:53.289Z,55.82
2018-07-07T05:22:22.466Z,52.35
2018-07-07T05:24:51.802Z,53.91
2018-07-07T05:27:21.051Z,54.11
2018-07-07T05:29:50.290Z,53.62
2018-07-07T05:32:19.668Z,55.55
2018-07-07T05:34:48.910Z,56.57
2018-07-07T05:37:18.298Z,55.74
2018-07-07T05:39:47.598Z,51.13
2018-07-07T05:42:16.906Z,52.05
2018-07-07T05:44:46.206Z,52.08
2018-07-07T05:47:15.610Z,48.74
2018-07-07T05:49:51.416Z,43.87
2018-07-07T05:52:20.723Z,44.74
2018-07-07T05:54:49.916Z,43.43
2018-07-07T05:57:19.181Z,40.92
2018-07-07T05:59:48.411Z,43.11
2018-07-07T06:02:17.745Z,41.57
2018-07-07T06:04:47.263Z,37.65
2018-07-07T06:07:16.572Z,36.61
2018-07-07T06:09:45.841Z,38.61
2018-07-07T06:12:15.153Z,41.16
2018-07-07T06:14:44.554Z,44.67
2018-07-07T06:17:13.992Z,43.80
2018-07-07T06:19:43.281Z,42.40
2018-07-07T06:22:12.558Z,46.71
2018-07-07T06:24:41.734Z,44.37
2018-07-07T06:27:10.974Z,43.04
2018-07-07T06:29:40.371Z,42.39
2018-07-07T06:32:09.699Z,42.62
2018-07-07T06:34:39.062Z,42.21
2018-07-07T06:37:08.375Z,44.44
2018-07-07T06:39:37.663Z,42.63
2018-07-07T06:42:07.225Z,40.59
2018-07-07T06:44:36.566Z,41.37
2018-07-07T06:47:06.095Z,43.53
2018-07-07T06:49:35.397Z,42.57
2018-07-07T06:52:06.538Z,41.40
2018-07-07T06:54:35.905Z,39.37
2018-07-07T06:57:05.279Z,38.58
2018-07-07T06:59:34.570Z,42.61
2018-07-07T07:02:03.834Z,40.42
2018-07-07T07:04:33.094Z,38.21
2018-07-07T07:07:02.448Z,38.31
2018-07-07T07:09:31.718Z,35.51
2018-07-07T07:12:01.256Z,34.61
2018-07-07T07:14:31.932Z,38.96
2018-07-07T07:17:01.405Z,41.18
2018-07-07T07:19:30.674Z,37.63
2018-07-07T07:21:59.942Z,39.22
2018-07-07T07:24:29.195Z,37.42
2018-07-07T07:26:58.495Z,36.82
2018-07-07T07:29:27.732Z,36.48
2018-07-07T07:31:57.141Z,33.44
2018-07-07T07:34:26.339Z,31.71
2018-07-07T07:36:55.623Z,31.25
2018-07-07T07:39:24.857Z,31.36
2018-07-07T07:41:54.189Z,34.53
2018-07-07T07:44:23.492Z,35.54
2018-07-07T07:46:52.688Z,33.22
2018-07-07T07:49:21.938Z,32.58
2018-07-07T07:51:51.294Z,30.30
2018-07-07T07:54:20.583Z,29.51
2018-07-07T07:56:49.948Z,29.26
2018-07-07T07:59:19.181Z,29.56
2018-07-07T08:01:48.502Z,29.40
2018-07-07T08:04:17.789Z,26.73
2018-07-07T08:06:47.096Z,25.32
2018-07-07T08:09:16.347Z,27.36
2018-07-07T08:11:45.594Z,27.26
2018-07-07T08:14:14.910Z,26.16
2018-07-07T08:16:44.547Z,25.00
2018-07-07T08:19:14.155Z,27.20
2018-07-07T08:21:43.921Z,28.88
2018-07-07T08:24:13.323Z,30.48
2018-07-07T08:26:42.745Z,31.03
2018-07-07T08:29:11.647Z,28.72
2018-07-07T08:31:40.610Z,28.04
2018-07-07T08:34:09.554Z,28.20
2018-07-07T08:36:38.687Z,28.62
2018-07-07T08:39:07.705Z,29.01
2018-07-07T08:41:36.714Z,27.64
2018-07-07T08:44:06.188Z,30.18
2018-07-07T08:46:35.498Z,30.61
2018-07-07T08:49:04.966Z,29.85
2018-07-07T08:51:34.310Z,29.97
2018-07-07T08:54:03.528Z,28.13
2018-07-07T08:56:32.807Z,28.57
2018-07-07T08:59:02.067Z,26.21
2018-07-07T09:01:31.286Z,26.09
2018-07-07T09:04:00.758Z,26.33
2018-07-07T09:06:30.282Z,26.05
2018-07-07T09:08:59.710Z,26.00
2018-07-07T09:11:29.029Z,27.75
2018-07-07T09:13:58.389Z,26.92
2018-07-07T09:16:27.607Z,30.86
2018-07-07T09:18:56.967Z,30.94
2018-07-07T09:21:26.231Z,28.24
2018-07-07T09:23:55.507Z,31.32
2018-07-07T09:26:24.812Z,30.21
2018-07-07T09:28:53.982Z,32.15
2018-07-07T09:31:23.227Z,31.97
2018-07-07T09:33:52.544Z,30.03
2018-07-07T09:36:21.808Z,27.47
2018-07-07T09:38:51.253Z,27.72
2018-07-07T09:41:20.468Z,26.63
2018-07-07T09:43:49.707Z,27.12
2018-07-07T09:46:19.046Z,25.68
2018-07-07T09:48:48.327Z,26.90
2018-07-07T09:51:17.594Z,26.87
2018-07-07T09:53:47.012Z,26.72
2018-07-07T09:56:16.318Z,30.00
2018-07-07T09:58:45.614Z,31.37
2018-07-07T10:01:14.897Z,29.48
2018-07-07T10:03:44.115Z,29.17
2018-07-07T10:06:13.442Z,27.44
2018-07-07T10:08:42.862Z,27.20
2018-07-07T10:11:12.086Z,26.05
2018-07-07T10:13:41.527Z,25.50
2018-07-07T10:16:10.885Z,26.96
2018-07-07T10:18:40.125Z,25.85
2018-07-07T10:21:09.527Z,29.36
2018-07-07T10:23:38.935Z,31.76
2018-07-07T10:26:08.327Z,30.57
2018-07-07T10:28:37.648Z,27.13
2018-07-07T10:31:07.014Z,24.75
2018-07-07T10:33:36.350Z,22.11
2018-07-07T10:36:05.635Z,23.00
2018-07-07T10:38:35.050Z,24.46
2018-07-07T10:41:04.547Z,25.33
2018-07-07T10:43:33.994Z,22.84
2018-07-07T10:46:03.329Z,22.39
2018-07-07T10:48:33.821Z,22.15
2018-07-07T10:51:03.126Z,20.61
2018-07-07T10:53:32.488Z,20.41
2018-07-07T10:56:01.887Z,20.49
2018-07-07T10:58:31.211Z,19.89
2018-07-07T11:01:00.550Z,18.93
2018-07-07T11:03:29.732Z,19.64
2018-07-07T11:05:58.692Z,21.45
2018-07-07T11:08:27.811Z,22.19
2018-07-07T11:10:57.123Z,22.71
2018-07-07T11:13:26.479Z,22.19
2018-07-07T11:15:55.683Z,21.85
2018-07-07T11:18:24.978Z,24.97
2018-07-07T11:20:54.276Z,24.54
2018-07-07T11:23:23.675Z,24.02
2018-07-07T11:25:52.965Z,22.22
2018-07-07T11:28:22.306Z,21.52
2018-07-07T11:30:51.814Z,20.98
2018-07-07T11:33:21.087Z,21.42
2018-07-07T11:35:50.297Z,22.57
2018-07-07T11:38:19.600Z,22.67
2018-07-07T11:40:48.991Z,21.77
2018-07-07T11:43:18.392Z,21.60
2018-07-07T11:45:47.686Z,20.74
2018-07-07T11:48:17.101Z,19.49
2018-07-07T11:50:46.469Z,19.64
2018-07-07T11:53:15.714Z,18.87
2018-07-07T11:55:44.954Z,18.57
2018-07-07T11:58:14.475Z,19.20
2018-07-07T12:00:43.762Z,19.87
2018-07-07T12:03:13.105Z,20.75
2018-07-07T12:05:42.344Z,18.90
2018-07-07T12:08:13.991Z,17.71
2018-07-07T12:10:40.910Z,18.37
2018-07-07T12:13:10.306Z,18.22
2018-07-07T12:15:39.609Z,17.38
2018-07-07T12:18:08.917Z,17.87
2018-07-07T12:20:38.154Z,18.69
2018-07-07T12:23:07.509Z,19.05
2018-07-07T12:25:36.754Z,19.69
2018-07-07T12:28:05.994Z,19.68
2018-07-07T12:30:35.410Z,18.24
2018-07-07T12:33:04.814Z,19.32
2018-07-07T12:35:34.119Z,19.56
2018-07-07T12:38:03.542Z,19.93
2018-07-07T12:40:32.839Z,20.66
2018-07-07T12:43:02.238Z,20.38
2018-07-07T12:45:31.676Z,19.63
2018-07-07T12:48:01.023Z,20.77
2018-07-07T12:50:30.327Z,20.93
2018-07-07T12:52:59.732Z,20.02
2018-07-07T12:55:29.655Z,20.43
2018-07-07T12:57:59.074Z,20.36
2018-07-07T13:00:28.426Z,21.22
2018-07-07T13:02:57.774Z,21.04
2018-07-07T13:05:27.001Z,19.73
2018-07-07T13:07:56.204Z,20.27
2018-07-07T13:10:25.758Z,20.66
2018-07-07T13:12:55.116Z,20.63
2018-07-07T13:15:24.423Z,20.58
2018-07-07T13:17:53.628Z,20.44
2018-07-07T13:20:22.964Z,20.70
2018-07-07T13:22:52.259Z,20.35
2018-07-07T13:25:21.560Z,20.68
2018-07-07T13:27:50.809Z,20.23
2018-07-07T13:30:20.060Z,19.80
2018-07-07T13:32:49.206Z,19.71
2018-07-07T13:35:18.441Z,19.35
2018-07-07T13:37:47.756Z,19.56
2018-07-07T13:40:17.155Z,20.26
2018-07-07T13:42:46.330Z,20.98
2018-07-07T13:45:15.739Z,19.76
2018-07-07T13:47:45.059Z,19.06
2018-07-07T13:50:14.361Z,18.31
2018-07-07T13:52:43.623Z,17.88
2018-07-07T13:55:12.955Z,17.75
2018-07-07T13:57:42.362Z,18.40
2018-07-07T14:00:11.773Z,17.77
2018-07-07T14:02:41.046Z,18.34
2018-07-07T14:05:10.474Z,17.82
2018-07-07T14:07:39.709Z,17.11
2018-07-07T14:10:08.975Z,17.63
2018-07-07T14:12:38.224Z,18.52
2018-07-07T14:15:07.459Z,18.94
2018-07-07T14:17:36.962Z,18.91
2018-07-07T14:20:06.155Z,18.29
2018-07-07T14:22:35.422Z,18.22
2018-07-07T14:25:04.908Z,17.72
2018-07-07T14:27:34.145Z,18.04
2018-07-07T14:30:03.576Z,19.19
2018-07-07T14:32:32.883Z,18.94
2018-07-07T14:35:02.183Z,18.93
2018-07-07T14:37:31.544Z,17.93
2018-07-07T14:40:01.757Z,19.17
2018-07-07T14:42:48.926Z,19.03
2018-07-07T14:45:28.116Z,18.42
2018-07-07T14:48:02.605Z,17.77
2018-07-07T14:50:31.894Z,17.26
2018-07-07T14:53:01.079Z,17.65
2018-07-07T14:55:30.653Z,18.04
2018-07-07T14:57:59.941Z,18.26
2018-07-07T15:00:29.806Z,17.26
2018-07-07T15:02:59.231Z,16.61
2018-07-07T15:05:28.502Z,17.21
2018-07-07T15:07:57.885Z,17.47
2018-07-07T15:10:27.725Z,17.87
2018-07-07T15:12:57.490Z,17.19
2018-07-07T15:15:27.452Z,17.95
2018-07-07T15:17:56.851Z,17.25
2018-07-07T15:20:26.839Z,17.19
2018-07-07T15:22:56.204Z,18.05
2018-07-07T15:25:25.458Z,18.07
2018-07-07T15:27:54.764Z,16.98
2018-07-07T15:30:24.092Z,17.32
2018-07-07T15:32:53.349Z,17.82
2018-07-07T15:35:22.659Z,17.95
2018-07-07T15:37:52.028Z,17.42
2018-07-07T15:40:21.378Z,17.38
2018-07-07T15:42:50.694Z,17.59
2018-07-07T15:45:20.079Z,17.17
2018-07-07T15:47:49.555Z,18.11
2018-07-07T15:50:18.987Z,17.43
2018-07-07T15:52:48.243Z,17.92
2018-07-07T15:55:17.394Z,17.96
2018-07-07T15:57:46.792Z,17.38
2018-07-07T16:00:16.184Z,17.77
2018-07-07T16:02:45.494Z,17.41
2018-07-07T16:05:14.798Z,17.78
2018-07-07T16:07:44.058Z,17.44
2018-07-07T16:10:13.878Z,16.98
2018-07-07T16:12:42.810Z,17.45
2018-07-07T16:15:12.299Z,17.75
2018-07-07T16:17:41.567Z,16.78
2018-07-07T16:20:11.102Z,16.59
2018-07-07T16:22:40.258Z,16.71
2018-07-07T16:25:09.626Z,17.02
2018-07-07T16:27:38.959Z,17.53
2018-07-07T16:30:08.306Z,17.83
2018-07-07T16:32:37.597Z,18.40
2018-07-07T16:35:06.914Z,18.17
2018-07-07T16:37:36.168Z,18.74
2018-07-07T16:40:05.535Z,18.65
2018-07-07T16:42:36.924Z,19.18
2018-07-07T16:45:06.313Z,18.48
2018-07-07T16:47:35.438Z,18.68
2018-07-07T16:50:04.860Z,17.99
2018-07-07T16:52:34.055Z,18.20
2018-07-07T16:55:03.451Z,18.64
2018-07-07T16:57:32.840Z,18.36
2018-07-07T17:00:02.296Z,18.66
2018-07-07T17:02:31.547Z,19.06
2018-07-07T17:05:00.788Z,18.86
2018-07-07T17:07:30.457Z,18.62
2018-07-07T17:10:00.005Z,18.68
2018-07-07T17:12:29.325Z,18.62
2018-07-07T17:14:58.778Z,18.42
2018-07-07T17:17:28.159Z,18.01
2018-07-07T17:19:57.574Z,18.35
2018-07-07T17:22:26.995Z,18.74
2018-07-07T17:24:56.353Z,18.83
2018-07-07T17:27:26.522Z,18.78
2018-07-07T17:29:55.794Z,19.04
2018-07-07T17:32:25.010Z,19.41
2018-07-07T17:34:54.361Z,18.94
2018-07-07T17:37:23.747Z,19.07
2018-07-07T17:39:53.084Z,19.15
2018-07-07T17:42:22.360Z,19.33
2018-07-07T17:44:51.701Z,19.35
2018-07-07T17:47:21.128Z,19.95
2018-07-07T17:49:50.378Z,19.44
2018-07-07T17:52:19.607Z,19.89
2018-07-07T17:54:48.897Z,20.24
2018-07-07T17:57:18.234Z,19.95
2018-07-07T17:59:47.473Z,20.16
2018-07-07T18:02:16.927Z,19.94
2018-07-07T18:04:46.233Z,19.64
2018-07-07T18:07:15.633Z,20.24
2018-07-07T18:09:44.899Z,20.20
2018-07-07T18:12:14.302Z,20.65
2018-07-07T18:14:43.491Z,19.97
2018-07-07T18:17:12.722Z,20.20
2018-07-07T18:19:42.089Z,20.89
2018-07-07T18:22:11.350Z,21.14
2018-07-07T18:24:40.573Z,21.09
2018-07-07T18:27:10.055Z,21.32
2018-07-07T18:29:39.393Z,21.87
2018-07-07T18:32:08.751Z,21.20
2018-07-07T18:34:38.007Z,21.93
2018-07-07T18:37:07.455Z,21.59
2018-07-07T18:39:36.755Z,21.57
2018-07-07T18:42:06.056Z,21.63
2018-07-07T18:44:35.306Z,21.76
2018-07-07T18:47:04.640Z,21.82
2018-07-07T18:49:34.386Z,22.16
2018-07-07T18:52:03.765Z,22.63
2018-07-07T18:54:33.065Z,22.57
2018-07-07T18:57:02.419Z,22.56
2018-07-07T18:59:31.659Z,23.28
2018-07-07T19:02:00.980Z,23.40
2018-07-07T19:04:30.222Z,23.37
2018-07-07T19:06:59.553Z,23.85
2018-07-07T19:09:28.729Z,23.60
2018-07-07T19:11:57.974Z,23.41
2018-07-07T19:14:27.231Z,23.85
2018-07-07T19:16:56.584Z,23.69
2018-07-07T19:19:25.836Z,24.21
2018-07-07T19:22:00.190Z,24.49
2018-07-07T19:24:34.495Z,24.24
2018-07-07T19:27:05.401Z,24.79
2018-07-07T19:29:34.591Z,23.86
2018-07-07T19:32:08.850Z,24.56
2018-07-07T19:34:43.209Z,24.40
2018-07-07T19:37:17.287Z,25.25
2018-07-07T19:39:47.150Z,25.30
2018-07-07T19:42:16.563Z,25.42
2018-07-07T19:44:45.770Z,25.84
2018-07-07T19:47:15.004Z,25.65
2018-07-07T19:49:44.304Z,26.17
2018-07-07T19:52:13.699Z,26.57
2018-07-07T19:54:43.110Z,26.18
2018-07-07T19:57:12.538Z,26.74
2018-07-07T19:59:41.798Z,26.76
2018-07-07T20:02:11.118Z,26.62
2018-07-07T20:04:40.382Z,26.60
2018-07-07T20:07:09.620Z,26.71
2018-07-07T20:09:38.742Z,27.02
2018-07-07T20:12:08.014Z,26.94
2018-07-07T20:14:37.262Z,27.36
2018-07-07T20:17:10.778Z,27.51
2018-07-07T20:20:59.059Z,27.41
2018-07-07T20:23:30.202Z,27.60
2018-07-07T20:26:02.211Z,27.74
2018-07-07T20:28:36.504Z,28.20
2018-07-07T20:31:05.712Z,29.19
2018-07-07T20:33:34.981Z,28.23
2018-07-07T20:36:04.135Z,28.28
2018-07-07T20:38:33.135Z,28.48
2018-07-07T20:41:03.332Z,28.87
2018-07-07T20:43:32.687Z,29.09
2018-07-07T20:46:02.188Z,28.80
2018-07-07T20:48:31.550Z,28.42
2018-07-07T20:51:00.783Z,28.46
2018-07-07T20:53:30.301Z,29.09
2018-07-07T20:55:59.564Z,29.47
2018-07-07T20:58:28.804Z,29.13
2018-07-07T21:00:58.175Z,29.02
2018-07-07T21:03:27.409Z,29.21
2018-07-07T21:05:56.677Z,28.92
2018-07-07T21:08:25.972Z,29.38
2018-07-07T21:10:55.324Z,29.35
2018-07-07T21:13:24.612Z,29.33
2018-07-07T21:15:53.841Z,29.14
2018-07-07T21:18:23.194Z,29.47
2018-07-07T21:20:52.412Z,29.90
2018-07-07T21:23:21.852Z,29.76
2018-07-07T21:25:51.318Z,29.52
2018-07-07T21:28:20.643Z,29.70
2018-07-07T21:30:50.082Z,30.01
2018-07-07T21:33:19.323Z,30.61
2018-07-07T21:35:48.577Z,30.16
2018-07-07T21:38:17.941Z,30.56
2018-07-07T21:40:47.167Z,30.20
2018-07-07T21:43:16.535Z,30.60
2018-07-07T21:45:45.808Z,30.47
2018-07-07T21:48:15.129Z,30.36
2018-07-07T21:50:44.412Z,31.21
2018-07-07T21:53:13.740Z,30.97
2018-07-07T21:55:43.132Z,31.11
2018-07-07T21:58:17.461Z,31.84
2018-07-07T22:01:02.830Z,31.12
2018-07-07T22:03:37.327Z,31.36
2018-07-07T22:06:08.626Z,31.33
2018-07-07T22:08:38.353Z,31.07
2018-07-07T22:11:07.914Z,31.33
2018-07-07T22:13:37.231Z,31.01
2018-07-07T22:16:06.602Z,31.42
2018-07-07T22:18:36.031Z,31.47
2018-07-07T22:21:16.282Z,31.07
2018-07-07T22:23:45.813Z,31.61
2018-07-07T22:26:15.044Z,31.43
2018-07-07T22:28:44.281Z,31.37
2018-07-07T22:31:13.518Z,32.31
2018-07-07T22:33:42.778Z,31.16
2018-07-07T22:36:16.941Z,31.54
2018-07-07T22:38:51.103Z,31.78
2018-07-07T22:41:20.668Z,32.01
2018-07-07T22:43:50.006Z,31.93
2018-07-07T22:46:19.365Z,32.26
2018-07-07T22:48:48.635Z,31.77
2018-07-07T22:51:17.885Z,32.25
2018-07-07T22:53:47.107Z,32.02
2018-07-07T22:56:16.362Z,32.74
2018-07-07T22:58:45.653Z,32.59
2018-07-07T23:01:14.904Z,32.48
2018-07-07T23:03:44.218Z,32.39
2018-07-07T23:06:13.623Z,32.85
2018-07-07T23:08:43.310Z,32.82
2018-07-07T23:11:12.642Z,32.03
2018-07-07T23:13:41.883Z,32.25
2018-07-07T23:16:11.236Z,32.44
2018-07-07T23:18:40.498Z,32.36
2018-07-07T23:21:09.730Z,32.29
2018-07-07T23:23:39.003Z,32.55
2018-07-07T23:26:08.242Z,33.32
2018-07-07T23:28:37.522Z,33.45
2018-07-07T23:31:06.937Z,33.24
2018-07-07T23:33:36.318Z,33.25
2018-07-07T23:36:05.610Z,33.06
2018-07-07T23:38:35.035Z,33.48
2018-07-07T23:41:04.257Z,33.23
2018-07-07T23:43:33.524Z,33.21
2018-07-07T23:46:03.050Z,32.84
2018-07-07T23:48:32.530Z,35.04
2018-07-07T23:51:01.817Z,34.62
2018-07-07T23:53:30.993Z,37.62
2018-07-07T23:56:00.350Z,36.03
2018-07-07T23:58:29.614Z,37.26
